createdAt,value
2022-09-15T00:01:14.354Z,14.52
2022-09-15T00:06:16.896Z,14.48
2022-09-15T00:11:20.568Z,14.49
2022-09-15T00:16:25.968Z,14.51
2022-09-15T00:21:30.510Z,14.44
2022-09-15T00:26:33.257Z,14.38
2022-09-15T00:31:37.191Z,14.24
2022-09-15T00:36:39.745Z,14.18
2022-09-15T00:41:42.490Z,14.12
2022-09-15T00:47:09.387Z,14.09
2022-09-15T00:52:14.897Z,14.01
2022-09-15T00:57:19.733Z,13.95
2022-09-15T01:02:25.460Z,13.94
2022-09-15T01:07:29.752Z,13.89
2022-09-15T01:12:32.368Z,13.84
2022-09-15T01:17:41.500Z,13.78
2022-09-15T01:22:51.644Z,13.70
2022-09-15T01:28:16.012Z,13.66
2022-09-15T01:33:26.713Z,13.61
2022-09-15T01:38:34.654Z,13.58
2022-09-15T01:43:48.735Z,13.52
2022-09-15T01:48:54.957Z,13.46
2022-09-15T01:53:59.282Z,13.46
2022-09-15T01:59:01.835Z,13.37
2022-09-15T02:04:10.302Z,13.31
2022-09-15T02:09:14.474Z,13.29
2022-09-15T02:14:18.342Z,13.29
2022-09-15T02:19:31.669Z,13.21
2022-09-15T02:24:37.835Z,13.16
2022-09-15T02:29:41.142Z,13.16
2022-09-15T02:34:47.304Z,13.09
2022-09-15T02:39:52.711Z,12.95
2022-09-15T02:44:55.345Z,12.91
2022-09-15T02:49:59.288Z,12.86
2022-09-15T02:55:01.805Z,12.91
2022-09-15T03:00:14.461Z,12.81
2022-09-15T03:05:19.396Z,12.79
2022-09-15T03:10:22.456Z,12.77
2022-09-15T03:15:25.884Z,12.78
2022-09-15T03:20:30.313Z,12.68
2022-09-15T03:25:33.229Z,12.63
2022-09-15T03:30:35.771Z,12.57
2022-09-15T03:35:39.700Z,12.49
2022-09-15T03:40:43.214Z,12.49
2022-09-15T03:45:45.785Z,12.53
2022-09-15T03:50:50.014Z,12.59
2022-09-15T03:55:52.583Z,12.63
2022-09-15T04:00:55.246Z,12.67
2022-09-15T04:05:59.189Z,12.70
2022-09-15T04:11:05.694Z,12.73
2022-09-15T04:16:09.765Z,12.78
2022-09-15T04:21:14.265Z,12.75
2022-09-15T04:26:20.093Z,12.69
2022-09-15T04:31:22.729Z,12.63
2022-09-15T04:36:28.288Z,12.55
2022-09-15T04:41:31.060Z,12.47
2022-09-15T04:46:33.725Z,12.48
2022-09-15T04:51:37.670Z,12.57
2022-09-15T04:56:40.898Z,12.68
2022-09-15T05:01:44.022Z,12.71
2022-09-15T05:06:47.993Z,12.76
2022-09-15T05:11:50.547Z,12.88
2022-09-15T05:16:53.124Z,12.90
2022-09-15T05:21:57.026Z,13.01
2022-09-15T05:26:59.573Z,13.08
2022-09-15T05:32:02.210Z,13.15
2022-09-15T05:37:06.491Z,13.16
2022-09-15T05:42:09.342Z,13.21
2022-09-15T05:47:11.862Z,13.33
2022-09-15T05:52:15.782Z,13.43
2022-09-15T05:57:18.341Z,13.49
2022-09-15T06:02:21.082Z,13.58
2022-09-15T06:07:25.025Z,13.54
2022-09-15T06:12:28.013Z,13.53
2022-09-15T06:17:32.648Z,13.55
2022-09-15T06:22:36.581Z,13.66
2022-09-15T06:27:39.126Z,13.76
2022-09-15T06:32:44.191Z,13.85
2022-09-15T06:37:51.437Z,14.03
2022-09-15T06:42:56.524Z,14.10
2022-09-15T06:48:23.011Z,14.24
2022-09-15T06:53:23.499Z,14.40
2022-09-15T06:58:26.040Z,14.55
2022-09-15T07:03:28.691Z,14.79
2022-09-15T07:08:33.077Z,14.97
2022-09-15T07:13:35.756Z,15.18
2022-09-15T07:18:42.807Z,15.33
2022-09-15T07:23:47.844Z,15.46
2022-09-15T07:28:51.414Z,15.67
2022-09-15T07:33:54.160Z,15.87
2022-09-15T07:38:58.496Z,16.18
2022-09-15T07:44:01.429Z,16.36
2022-09-15T07:49:04.682Z,16.50
2022-09-15T07:54:08.607Z,16.58
2022-09-15T07:59:11.339Z,16.48
2022-09-15T08:04:13.878Z,16.42
2022-09-15T08:09:17.811Z,16.36
2022-09-15T08:14:20.370Z,16.41
2022-09-15T08:19:22.927Z,16.48
2022-09-15T08:24:26.895Z,16.51
2022-09-15T08:29:29.438Z,16.52
2022-09-15T08:34:32.020Z,16.61
2022-09-15T08:39:35.934Z,16.65
2022-09-15T08:44:44.371Z,16.76
2022-09-15T08:49:54.757Z,16.86
2022-09-15T08:54:59.501Z,16.93
2022-09-15T09:00:02.210Z,17.08
2022-09-15T09:05:07.871Z,17.09
2022-09-15T09:10:16.446Z,17.13
2022-09-15T09:15:25.397Z,17.26
2022-09-15T09:20:33.399Z,17.38
2022-09-15T09:25:37.426Z,17.43
2022-09-15T09:30:41.434Z,17.46
2022-09-15T09:35:45.422Z,17.68
2022-09-15T09:40:50.722Z,17.73
2022-09-15T09:45:53.332Z,17.89
2022-09-15T09:50:56.027Z,17.93
2022-09-15T09:56:13.427Z,17.73
2022-09-15T10:01:18.085Z,17.95
2022-09-15T10:06:22.180Z,18.15
2022-09-15T10:11:39.485Z,18.33
2022-09-15T10:16:44.389Z,18.72
2022-09-15T10:21:46.950Z,18.83
2022-09-15T10:26:49.544Z,18.68
2022-09-15T10:31:53.678Z,18.59
2022-09-15T10:37:02.985Z,18.65
2022-09-15T10:42:10.089Z,18.65
2022-09-15T10:47:19.544Z,18.74
2022-09-15T10:52:27.970Z,18.99
2022-09-15T10:57:42.134Z,19.05
2022-09-15T11:03:02.069Z,18.97
2022-09-15T11:08:14.103Z,18.82
2022-09-15T11:13:20.566Z,18.57
2022-09-15T11:18:44.917Z,18.30
2022-09-15T11:23:50.385Z,18.03
2022-09-15T11:28:55.883Z,18.11
2022-09-15T11:34:02.898Z,18.53
2022-09-15T11:39:08.796Z,18.83
2022-09-15T11:44:17.545Z,19.03
2022-09-15T11:49:23.391Z,19.14
2022-09-15T11:54:31.574Z,19.04
2022-09-15T11:59:39.869Z,19.16
2022-09-15T12:04:46.402Z,19.34
2022-09-15T12:09:49.874Z,19.61
2022-09-15T12:14:53.450Z,19.66
2022-09-15T12:20:01.269Z,19.51
2022-09-15T12:25:04.961Z,19.57
2022-09-15T12:30:28.090Z,19.97
2022-09-15T12:35:33.215Z,20.16
2022-09-15T12:40:36.972Z,20.03
2022-09-15T12:45:40.538Z,19.99
2022-09-15T12:50:53.164Z,19.99
2022-09-15T12:55:57.492Z,20.30
2022-09-15T13:01:18.214Z,20.62
2022-09-15T13:06:23.094Z,20.60
2022-09-15T13:11:34.662Z,20.70
2022-09-15T13:16:44.147Z,20.91
2022-09-15T13:21:50.512Z,21.20
2022-09-15T13:26:55.779Z,21.51
2022-09-15T13:32:02.070Z,21.63
2022-09-15T13:42:53.379Z,21.36
2022-09-15T13:48:05.949Z,21.37
2022-09-15T13:53:24.216Z,21.37
2022-09-15T14:03:53.160Z,20.97
2022-09-15T14:08:57.270Z,20.94
2022-09-15T14:14:01.677Z,20.78
2022-09-15T14:19:23.092Z,20.67
2022-09-15T14:24:27.887Z,20.33
2022-09-15T14:29:31.861Z,19.95
2022-09-15T14:34:37.175Z,19.77
2022-09-15T14:39:40.426Z,19.44
2022-09-15T14:50:07.431Z,18.52
2022-09-15T14:55:13.660Z,18.78
2022-09-15T15:00:20.467Z,19.28
2022-09-15T15:05:25.752Z,19.60
2022-09-15T15:10:35.656Z,19.37
2022-09-15T15:15:40.360Z,19.18
2022-09-15T15:20:49.809Z,19.01
2022-09-15T15:25:52.756Z,18.70
2022-09-15T15:31:06.434Z,18.53
2022-09-15T15:36:09.878Z,18.49
2022-09-15T15:41:19.951Z,18.53
2022-09-15T15:46:37.349Z,18.60
2022-09-15T15:51:41.592Z,18.64
2022-09-15T15:56:44.366Z,18.68
2022-09-15T16:01:48.490Z,18.54
2022-09-15T16:06:52.836Z,18.33
2022-09-15T16:17:03.329Z,18.32
2022-09-15T16:22:07.298Z,18.27
2022-09-15T16:27:14.806Z,18.27
2022-09-15T16:32:18.823Z,18.37
2022-09-15T16:37:22.817Z,18.31
2022-09-15T16:42:25.376Z,18.41
2022-09-15T16:47:27.931Z,18.62
2022-09-15T16:52:31.830Z,18.72
2022-09-15T16:57:34.370Z,18.73
2022-09-15T17:02:36.919Z,18.68
2022-09-15T17:07:40.816Z,18.47
2022-09-15T17:12:43.629Z,18.41
2022-09-15T17:17:46.206Z,18.45
2022-09-15T17:22:50.789Z,18.16
2022-09-15T17:27:53.612Z,17.84
2022-09-15T17:33:02.734Z,17.57
2022-09-15T17:38:07.342Z,17.47
2022-09-15T17:43:13.760Z,17.32
2022-09-15T17:48:16.421Z,17.23
2022-09-15T17:53:22.606Z,17.14
2022-09-15T17:58:26.647Z,17.14
2022-09-15T18:03:30.791Z,17.13
2022-09-15T18:08:36.079Z,17.08
2022-09-15T18:13:38.730Z,16.91
2022-09-15T18:18:41.344Z,16.81
2022-09-15T18:23:45.261Z,16.70
2022-09-15T18:28:47.789Z,16.38
2022-09-15T18:33:50.317Z,16.20
2022-09-15T18:38:54.262Z,16.08
2022-09-15T18:43:56.796Z,15.96
2022-09-15T18:48:59.325Z,15.84
2022-09-15T18:54:03.801Z,15.72
2022-09-15T18:59:06.407Z,15.64
2022-09-15T19:04:08.961Z,15.47
2022-09-15T19:09:12.875Z,15.28
2022-09-15T19:14:15.430Z,15.13
2022-09-15T19:19:18.006Z,15.09
2022-09-15T19:24:21.921Z,15.04
2022-09-15T19:29:24.505Z,15.07
2022-09-15T19:34:27.129Z,15.04
2022-09-15T19:39:31.453Z,15.03
2022-09-15T19:44:34.251Z,15.01
2022-09-15T19:49:37.154Z,14.98
2022-09-15T19:54:41.186Z,14.91
2022-09-15T19:59:44.699Z,14.96
2022-09-15T20:04:48.586Z,15.06
2022-09-15T20:09:53.184Z,15.15
2022-09-15T20:14:55.746Z,15.25
2022-09-15T20:19:58.290Z,15.22
2022-09-15T20:25:02.227Z,15.09
2022-09-15T20:30:05.525Z,15.02
2022-09-15T20:35:08.235Z,15.09
2022-09-15T20:40:12.223Z,15.08
2022-09-15T20:45:15.396Z,15.04
2022-09-15T20:50:17.961Z,14.98
2022-09-15T20:55:21.882Z,14.97
2022-09-15T21:00:24.917Z,14.88
2022-09-15T21:05:27.473Z,14.85
2022-09-15T21:10:31.430Z,14.91
2022-09-15T21:15:34.552Z,15.02
2022-09-15T21:20:37.094Z,15.06
2022-09-15T21:25:41.014Z,15.03
2022-09-15T21:30:43.555Z,15.11
2022-09-15T21:35:47.410Z,15.21
2022-09-15T21:40:51.329Z,15.14
2022-09-15T21:45:55.852Z,15.07
2022-09-15T21:50:58.453Z,15.06
2022-09-15T21:56:03.408Z,15.08
2022-09-15T22:01:13.023Z,15.11
2022-09-15T22:06:16.046Z,15.11
2022-09-15T22:11:20.084Z,15.17
2022-09-15T22:16:23.889Z,15.29
2022-09-15T22:21:27.276Z,15.40
2022-09-15T22:26:32.339Z,15.43
2022-09-15T22:31:35.229Z,15.27
2022-09-15T22:36:37.825Z,15.17
2022-09-15T22:41:41.753Z,15.13
2022-09-15T22:46:44.318Z,15.09
2022-09-15T22:51:46.869Z,15.04
2022-09-15T22:56:50.808Z,15.10
2022-09-15T23:01:53.406Z,15.12
2022-09-15T23:06:56.019Z,15.09
2022-09-15T23:12:00.048Z,15.08
2022-09-15T23:17:02.621Z,15.03
2022-09-15T23:22:05.195Z,14.99
2022-09-15T23:27:09.116Z,15.04
2022-09-15T23:32:11.680Z,15.16
2022-09-15T23:37:14.306Z,15.22
2022-09-15T23:42:19.060Z,15.25
2022-09-15T23:47:21.779Z,15.22
2022-09-15T23:52:24.333Z,15.09
2022-09-15T23:57:28.252Z,15.03
